Time;durP1;ratioP1;P1;durP2;ratioP2;P2;SDS_P1;SDS_P2;PMS_P1;PMS_P2;Temp;Humidity;BMP_temperature;BMP_pressure;BME280_temperature;BME280_humidity;BME280_pressure;Samples;Min_cycle;Max_cycle;Signal;HPM_P1;HPM_P2
2022/07/14 00:02:04;;;;;;;5.45;2.72;;;19.70;90.40;;;;;;5031267;28;20029;-76
2022/07/14 00:04:29;;;;;;;5.32;3.00;;;19.70;90.40;;;;;;5030915;28;20037;-76
2022/07/14 00:06:54;;;;;;;4.97;2.45;;;19.70;90.40;;;;;;5032667;28;20525;-76
2022/07/14 00:09:20;;;;;;;4.55;2.53;;;19.70;90.50;;;;;;5031124;28;20033;-76
2022/07/14 00:11:45;;;;;;;5.20;2.70;;;19.70;90.50;;;;;;5030994;28;20421;-75
2022/07/14 00:14:11;;;;;;;4.68;2.65;;;19.60;90.40;;;;;;5030861;28;20130;-75
2022/07/14 00:16:37;;;;;;;3.95;2.30;;;19.70;90.50;;;;;;5032585;28;20033;-76
2022/07/14 00:19:03;;;;;;;4.15;2.40;;;19.70;90.50;;;;;;5032073;28;20041;-76
2022/07/14 00:21:29;;;;;;;4.00;2.20;;;19.70;90.50;;;;;;5031158;28;20056;-75
2022/07/14 00:23:54;;;;;;;4.90;2.20;;;19.70;90.40;;;;;;5031714;28;20109;-77
2022/07/14 00:26:20;;;;;;;4.32;2.30;;;19.70;90.40;;;;;;5032086;28;20021;-76
2022/07/14 00:28:45;;;;;;;5.35;2.42;;;19.80;90.40;;;;;;5029941;28;20034;-75
2022/07/14 00:31:12;;;;;;;4.35;2.30;;;19.80;90.40;;;;;;5030336;28;20116;-76
2022/07/14 00:33:39;;;;;;;4.57;2.42;;;19.70;90.30;;;;;;5030466;28;20022;-77
2022/07/14 00:36:09;;;;;;;5.95;2.58;;;19.70;90.30;;;;;;5030770;28;20105;-76
2022/07/14 00:38:35;;;;;;;3.72;2.33;;;19.70;90.40;;;;;;5032066;28;20026;-77
2022/07/14 00:41:01;;;;;;;3.83;2.60;;;19.70;90.40;;;;;;5031901;28;20277;-76
2022/07/14 00:43:26;;;;;;;4.35;2.33;;;19.70;90.40;;;;;;5030498;28;20021;-77
2022/07/14 00:45:52;;;;;;;4.13;2.58;;;19.70;90.40;;;;;;5046749;28;20694;-76
2022/07/14 00:48:19;;;;;;;5.20;2.67;;;19.70;90.50;;;;;;5032149;28;20029;-77
2022/07/14 00:50:45;;;;;;;5.18;2.47;;;19.70;90.50;;;;;;5031813;28;20021;-76
2022/07/14 00:53:12;;;;;;;4.20;2.45;;;19.70;90.50;;;;;;5031648;28;20028;-76
2022/07/14 00:55:40;;;;;;;6.20;2.80;;;19.70;90.50;;;;;;5030087;28;20639;-76
2022/07/14 00:58:05;;;;;;;4.13;2.20;;;19.70;90.50;;;;;;5031737;28;20021;-76
2022/07/14 01:00:31;;;;;;;4.72;2.47;;;19.70;90.50;;;;;;5031610;28;20482;-76
2022/07/14 01:02:57;;;;;;;4.30;2.58;;;19.60;90.50;;;;;;5031510;28;20029;-76
2022/07/14 01:05:23;;;;;;;5.55;2.88;;;19.70;90.60;;;;;;5030521;28;20030;-77
2022/07/14 01:07:48;;;;;;;4.72;2.50;;;19.70;90.60;;;;;;5030696;28;20036;-76
2022/07/14 01:10:14;;;;;;;3.65;2.35;;;19.60;90.60;;;;;;5031891;28;20026;-76
2022/07/14 01:12:47;;;;;;;4.47;2.20;;;19.70;90.50;;;;;;5030291;28;20053;-75
2022/07/14 01:15:20;;;;;;;3.75;2.28;;;19.70;90.50;;;;;;5031146;28;20032;-76
2022/07/14 01:17:47;;;;;;;5.00;2.30;;;19.70;90.50;;;;;;5031581;28;20025;-77
2022/07/14 01:20:14;;;;;;;4.00;2.40;;;19.70;90.70;;;;;;5030459;28;20063;-76
2022/07/14 01:22:40;;;;;;;4.15;2.20;;;19.70;90.40;;;;;;5030054;28;20034;-76
2022/07/14 01:25:07;;;;;;;6.60;2.70;;;19.70;90.40;;;;;;5031292;28;20025;-76
2022/07/14 01:27:33;;;;;;;4.50;2.20;;;19.80;90.40;;;;;;5030256;28;20030;-75
2022/07/14 01:29:59;;;;;;;3.63;2.38;;;19.70;90.40;;;;;;5030041;28;20129;-75
2022/07/14 01:32:25;;;;;;;5.15;2.70;;;19.70;90.50;;;;;;5034057;28;20512;-76
2022/07/14 01:34:50;;;;;;;3.67;2.35;;;19.70;90.50;;;;;;5035054;28;20033;-76
2022/07/14 01:37:16;;;;;;;4.20;2.42;;;19.70;90.50;;;;;;5035659;28;20029;-76
2022/07/14 01:39:42;;;;;;;4.38;2.20;;;19.70;90.50;;;;;;5034036;28;20103;-76
2022/07/14 01:42:08;;;;;;;3.95;2.30;;;19.70;90.60;;;;;;5034188;28;20018;-75
2022/07/14 01:44:33;;;;;;;5.22;2.47;;;19.70;90.60;;;;;;5033529;28;20041;-76
2022/07/14 01:46:59;;;;;;;4.35;2.30;;;19.70;90.60;;;;;;5033588;28;20029;-77
2022/07/14 01:49:25;;;;;;;4.45;2.35;;;19.70;90.60;;;;;;5030827;28;20105;-76
2022/07/14 01:51:50;;;;;;;4.50;2.40;;;19.60;90.60;;;;;;5015537;28;20034;-76
2022/07/14 01:54:16;;;;;;;3.47;1.92;;;19.60;90.60;;;;;;5023798;28;20025;-75
2022/07/14 01:56:41;;;;;;;4.47;2.33;;;19.70;90.60;;;;;;5035209;28;20455;-77
2022/07/14 01:59:08;;;;;;;4.18;2.42;;;19.70;90.60;;;;;;5033976;28;20029;-76
2022/07/14 02:01:40;;;;;;;3.88;2.20;;;19.70;90.70;;;;;;5030373;28;20060;-77
2022/07/14 02:04:09;;;;;;;3.65;2.05;;;19.70;90.60;;;;;;5014499;28;20099;-77
2022/07/14 02:06:34;;;;;;;3.35;2.00;;;19.70;90.60;;;;;;5033977;28;20492;-76
2022/07/14 02:09:00;;;;;;;3.63;2.10;;;19.70;90.50;;;;;;5034848;28;20113;-76
2022/07/14 02:14:10;;;;;;;4.82;2.30;;;19.70;90.40;;;;;;5021982;28;20079;-76
2022/07/14 02:16:36;;;;;;;4.32;2.40;;;19.70;90.70;;;;;;5034553;28;20030;-76
2022/07/14 02:19:03;;;;;;;4.45;2.25;;;19.70;90.40;;;;;;5050265;28;20022;-77
2022/07/14 02:21:28;;;;;;;4.35;2.30;;;19.70;90.40;;;;;;5033235;28;20026;-76
2022/07/14 02:23:54;;;;;;;4.05;2.13;;;19.70;90.50;;;;;;5034091;28;20029;-76
2022/07/14 02:26:20;;;;;;;3.72;2.33;;;19.70;90.50;;;;;;5034565;28;20017;-77
2022/07/14 02:28:45;;;;;;;3.70;2.00;;;19.60;90.50;;;;;;5033306;28;20025;-76
2022/07/14 02:31:11;;;;;;;4.65;2.20;;;19.70;90.60;;;;;;5038972;28;20398;-76
2022/07/14 02:33:37;;;;;;;4.78;2.47;;;19.60;90.60;;;;;;5035549;28;21892;-76
2022/07/14 02:36:04;;;;;;;5.43;2.10;;;19.70;90.60;;;;;;5032994;28;20018;-76
2022/07/14 02:38:29;;;;;;;5.07;2.30;;;19.70;90.60;;;;;;5030071;28;20025;-76
2022/07/14 02:40:55;;;;;;;3.55;2.25;;;19.60;90.60;;;;;;5032852;28;20383;-76
2022/07/14 02:43:20;;;;;;;4.95;2.28;;;19.60;90.60;;;;;;5032140;28;20516;-75
2022/07/14 02:45:46;;;;;;;6.60;2.20;;;19.60;90.60;;;;;;5033675;28;20029;-76
2022/07/14 02:48:11;;;;;;;3.75;1.83;;;19.60;90.60;;;;;;5034140;28;20060;-76
2022/07/14 02:50:37;;;;;;;3.47;2.10;;;19.60;90.60;;;;;;5034068;28;20025;-75
2022/07/14 02:53:03;;;;;;;3.88;2.08;;;19.60;90.70;;;;;;5033937;28;20088;-77
2022/07/14 02:55:30;;;;;;;4.30;2.33;;;19.70;90.70;;;;;;5033573;28;20402;-75
2022/07/14 02:57:56;;;;;;;3.80;2.10;;;19.70;90.60;;;;;;5032510;28;20030;-76
2022/07/14 03:00:21;;;;;;;4.38;2.10;;;19.70;90.60;;;;;;5033726;28;20028;-76
2022/07/14 03:02:47;;;;;;;4.68;2.50;;;19.70;90.50;;;;;;5033369;28;20091;-76
2022/07/14 03:05:12;;;;;;;3.17;1.98;;;19.70;90.50;;;;;;5048840;28;20561;-75
2022/07/14 03:07:38;;;;;;;4.28;2.22;;;19.70;90.50;;;;;;5033841;28;20033;-75
2022/07/14 03:10:04;;;;;;;3.53;2.05;;;19.70;90.50;;;;;;5048974;28;20030;-75
2022/07/14 03:12:30;;;;;;;4.15;2.20;;;19.70;90.50;;;;;;5032389;28;20029;-75
2022/07/14 03:14:55;;;;;;;3.63;2.10;;;19.70;90.50;;;;;;5043634;28;20508;-76
2022/07/14 03:17:21;;;;;;;3.83;2.33;;;19.70;90.50;;;;;;5033572;28;20487;-75
2022/07/14 03:19:46;;;;;;;5.03;2.38;;;19.70;90.60;;;;;;5028909;28;20018;-75
2022/07/14 03:22:11;;;;;;;3.45;2.13;;;19.70;90.60;;;;;;5021490;28;20486;-76
2022/07/14 03:24:37;;;;;;;4.18;2.08;;;19.70;90.60;;;;;;5031874;28;20036;-75
2022/07/14 03:27:03;;;;;;;4.45;2.13;;;19.70;90.70;;;;;;5032303;28;20125;-76
2022/07/14 03:29:28;;;;;;;3.80;2.13;;;19.70;90.70;;;;;;5028662;28;20029;-75
2022/07/14 03:31:54;;;;;;;3.67;2.00;;;19.60;90.60;;;;;;5012297;28;20113;-76
2022/07/14 03:34:20;;;;;;;4.35;2.10;;;19.70;90.70;;;;;;5027242;28;20513;-76
2022/07/14 03:36:46;;;;;;;3.72;2.10;;;19.60;90.70;;;;;;5033296;28;20068;-75
2022/07/14 03:39:11;;;;;;;3.42;2.00;;;19.60;90.70;;;;;;5033162;28;20394;-76
2022/07/14 03:41:36;;;;;;;3.92;2.05;;;19.60;90.70;;;;;;5033362;28;20104;-75
2022/07/14 03:44:02;;;;;;;4.22;2.10;;;19.60;90.70;;;;;;5032817;28;20031;-76
2022/07/14 03:46:28;;;;;;;4.05;2.10;;;19.60;90.70;;;;;;5032666;28;20695;-76
2022/07/14 03:48:53;;;;;;;3.55;1.98;;;19.70;90.70;;;;;;5031625;28;20043;-76
2022/07/14 03:51:19;;;;;;;5.25;2.40;;;19.60;90.60;;;;;;5028458;28;20036;-75
2022/07/14 03:53:45;;;;;;;4.40;2.00;;;19.70;90.60;;;;;;5021803;28;20030;-77
2022/07/14 03:56:10;;;;;;;4.30;2.03;;;19.70;90.50;;;;;;5029336;28;20104;-75
2022/07/14 03:58:36;;;;;;;4.35;2.20;;;19.70;90.50;;;;;;5033225;28;20112;-76
2022/07/14 04:01:03;;;;;;;3.20;1.98;;;19.70;90.50;;;;;;5033470;28;20560;-75
2022/07/14 04:03:28;;;;;;;3.97;1.90;;;19.70;90.50;;;;;;5031050;28;20025;-76
2022/07/14 04:05:54;;;;;;;4.03;2.00;;;19.70;90.50;;;;;;5032063;28;20037;-76
2022/07/14 04:08:19;;;;;;;4.55;2.15;;;19.70;90.60;;;;;;5032937;28;20025;-78
2022/07/14 04:10:45;;;;;;;4.75;2.30;;;19.70;90.60;;;;;;5038341;28;20120;-76
2022/07/14 04:13:12;;;;;;;4.22;1.90;;;19.60;90.60;;;;;;5038801;28;20022;-85
2022/07/14 04:15:38;;;;;;;4.15;2.00;;;19.70;90.90;;;;;;5034908;28;20025;-76
2022/07/14 04:18:03;;;;;;;4.10;1.90;;;19.70;90.70;;;;;;5032435;28;20090;-75
2022/07/14 04:20:29;;;;;;;4.07;2.00;;;19.70;90.70;;;;;;5031706;28;20025;-76
2022/07/14 04:22:55;;;;;;;3.65;2.20;;;19.60;90.60;;;;;;5030975;28;20371;-77
2022/07/14 04:25:20;;;;;;;3.97;1.98;;;19.60;90.60;;;;;;5032093;28;20439;-76
2022/07/14 04:27:46;;;;;;;4.05;2.08;;;19.60;90.70;;;;;;5032470;28;20026;-75
2022/07/14 04:30:13;;;;;;;4.25;2.05;;;19.60;90.70;;;;;;5030364;28;20034;-79
2022/07/14 04:32:39;;;;;;;5.38;2.78;;;19.60;90.60;;;;;;5034339;28;20038;-76
2022/07/14 04:35:05;;;;;;;4.72;1.83;;;19.60;90.60;;;;;;5030486;28;20040;-76
2022/07/14 04:37:30;;;;;;;4.93;2.13;;;19.60;90.60;;;;;;5030319;28;20017;-76
2022/07/14 04:39:56;;;;;;;3.72;1.85;;;19.70;90.60;;;;;;5042919;28;20087;-76
2022/07/14 04:42:23;;;;;;;3.70;2.00;;;19.70;90.50;;;;;;5045948;28;20079;-76
2022/07/14 04:44:49;;;;;;;3.65;1.83;;;19.70;90.50;;;;;;5030313;28;20113;-77
2022/07/14 04:47:14;;;;;;;3.45;1.90;;;19.70;90.40;;;;;;5045907;28;20069;-76
2022/07/14 04:52:24;;;;;;;4.13;1.92;;;19.70;90.40;;;;;;5034756;28;20089;-75
2022/07/14 04:54:51;;;;;;;5.30;2.00;;;19.70;90.40;;;;;;5030319;28;20033;-75
2022/07/14 04:57:19;;;;;;;3.15;2.00;;;19.70;90.50;;;;;;5030925;28;20032;-76
2022/07/14 04:59:45;;;;;;;3.42;2.00;;;19.70;90.70;;;;;;5030753;28;20032;-75
2022/07/14 05:02:10;;;;;;;5.03;2.13;;;19.70;90.50;;;;;;5031703;28;20108;-75
2022/07/14 05:04:36;;;;;;;4.30;2.03;;;19.70;90.50;;;;;;5030822;28;20037;-79
2022/07/14 05:07:02;;;;;;;4.05;2.10;;;19.70;90.50;;;;;;5045777;28;20029;-76
2022/07/14 05:09:32;;;;;;;3.97;1.98;;;19.70;90.50;;;;;;5032859;28;20036;-76
2022/07/14 05:11:58;;;;;;;4.75;2.10;;;19.70;90.50;;;;;;5030748;28;20021;-76
2022/07/14 05:14:23;;;;;;;4.75;2.08;;;19.70;90.50;;;;;;5030503;28;20026;-76
2022/07/14 05:16:49;;;;;;;4.50;1.92;;;19.70;90.50;;;;;;5031267;28;20510;-75
2022/07/14 05:19:16;;;;;;;5.63;2.42;;;19.60;90.50;;;;;;5030214;28;20513;-75
2022/07/14 05:21:42;;;;;;;4.03;1.95;;;19.70;90.50;;;;;;5030054;28;20401;-76
2022/07/14 05:24:09;;;;;;;4.53;1.92;;;19.70;90.40;;;;;;5028846;28;20383;-75
2022/07/14 05:26:35;;;;;;;3.13;1.77;;;19.70;90.40;;;;;;5022113;28;20029;-76
2022/07/14 05:29:01;;;;;;;4.95;2.03;;;19.70;90.50;;;;;;5025984;28;20098;-76
2022/07/14 05:31:26;;;;;;;4.13;1.90;;;19.70;90.40;;;;;;5029272;28;20094;-75
2022/07/14 05:36:43;;;;;;;4.15;2.00;;;19.80;90.30;;;;;;5048184;28;20041;-77
2022/07/14 05:39:12;;;;;;;5.00;2.40;;;19.80;90.30;;;;;;5050624;28;20440;-75
2022/07/14 05:41:37;;;;;;;4.00;1.80;;;20.10;90.30;;;;;;5032779;28;20517;-74
2022/07/14 05:44:03;;;;;;;4.03;1.90;;;19.80;90.20;;;;;;5043755;28;20028;-77
2022/07/14 05:46:28;;;;;;;4.55;1.80;;;19.80;90.20;;;;;;5071013;28;20135;-75
2022/07/14 05:48:54;;;;;;;5.60;2.00;;;19.80;90.20;;;;;;5052962;28;20029;-76
2022/07/14 05:51:22;;;;;;;3.97;1.85;;;19.80;90.20;;;;;;5055036;28;20050;-77
2022/07/14 05:53:47;;;;;;;4.60;1.83;;;19.80;90.20;;;;;;5058855;28;20482;-75
2022/07/14 05:56:16;;;;;;;6.07;1.90;;;19.80;90.20;;;;;;5049962;28;20082;-75
2022/07/14 05:58:42;;;;;;;5.97;2.15;;;19.80;90.20;;;;;;5049593;28;20438;-75
2022/07/14 06:01:07;;;;;;;3.88;2.00;;;19.80;90.20;;;;;;5050554;28;20093;-75
2022/07/14 06:03:34;;;;;;;6.40;1.95;;;19.80;90.20;;;;;;5049453;28;20027;-75
2022/07/14 06:06:01;;;;;;;5.32;1.98;;;19.80;90.20;;;;;;5049155;28;20653;-75
2022/07/14 06:08:26;;;;;;;4.50;2.10;;;19.80;90.20;;;;;;5049585;28;20132;-76
2022/07/14 06:10:55;;;;;;;5.85;2.00;;;19.80;90.20;;;;;;5049586;28;20035;-76
2022/07/14 06:13:22;;;;;;;6.03;2.13;;;19.80;90.20;;;;;;5049499;28;20108;-74
2022/07/14 06:15:48;;;;;;;4.72;1.90;;;19.80;90.10;;;;;;5049386;28;20071;-75
2022/07/14 06:18:14;;;;;;;7.32;2.10;;;19.80;90.20;;;;;;5051376;28;20494;-75
2022/07/14 06:20:41;;;;;;;4.63;1.80;;;19.80;90.10;;;;;;5054350;28;20112;-75
2022/07/14 06:23:07;;;;;;;4.45;1.88;;;19.80;90.10;;;;;;5052983;28;20017;-75
2022/07/14 06:25:33;;;;;;;5.50;1.67;;;19.80;90.00;;;;;;5052702;28;20032;-75
2022/07/14 06:27:58;;;;;;;4.07;1.80;;;19.90;90.00;;;;;;5053036;28;20025;-75
2022/07/14 06:30:24;;;;;;;4.78;2.03;;;19.90;89.90;;;;;;5052986;28;20533;-75
2022/07/14 06:32:49;;;;;;;5.72;1.90;;;19.90;89.80;;;;;;5052949;28;20116;-75
2022/07/14 06:35:15;;;;;;;6.00;1.80;;;19.90;89.80;;;;;;5053684;28;20473;-75
2022/07/14 06:37:40;;;;;;;5.70;1.90;;;20.00;89.80;;;;;;5053953;28;20032;-75
2022/07/14 06:40:06;;;;;;;5.53;1.80;;;20.00;89.80;;;;;;5053985;28;20096;-77
2022/07/14 06:42:33;;;;;;;4.55;1.77;;;20.00;89.80;;;;;;5053916;28;20017;-76
2022/07/14 06:44:59;;;;;;;4.03;1.83;;;19.90;89.80;;;;;;5052318;28;20033;-76
2022/07/14 06:47:25;;;;;;;3.38;1.70;;;20.00;90.00;;;;;;5052650;28;20400;-75
2022/07/14 06:49:50;;;;;;;4.53;1.73;;;19.90;89.90;;;;;;5052632;28;20056;-75
2022/07/14 06:52:16;;;;;;;5.00;2.17;;;19.90;89.90;;;;;;5053605;28;20036;-75
2022/07/14 06:54:41;;;;;;;5.82;1.92;;;19.90;89.80;;;;;;5053357;28;20029;-75
2022/07/14 06:57:07;;;;;;;4.38;1.60;;;20.00;89.90;;;;;;5053952;28;20124;-75
2022/07/14 06:59:32;;;;;;;4.00;2.00;;;20.00;89.80;;;;;;5052231;28;20021;-75
2022/07/14 07:01:58;;;;;;;3.65;1.60;;;20.00;89.80;;;;;;5052394;28;20397;-75
2022/07/14 07:04:24;;;;;;;4.35;1.65;;;20.00;89.70;;;;;;5052111;28;20025;-75
2022/07/14 07:06:51;;;;;;;4.95;1.85;;;20.00;89.60;;;;;;5053522;28;20020;-75
2022/07/14 07:09:19;;;;;;;4.65;1.63;;;20.00;89.70;;;;;;5052191;28;20124;-75
2022/07/14 07:11:45;;;;;;;4.53;1.70;;;20.00;89.70;;;;;;5053188;28;20025;-75
2022/07/14 07:14:12;;;;;;;4.55;1.88;;;20.00;89.70;;;;;;5052980;28;20478;-75
2022/07/14 07:16:37;;;;;;;5.00;1.88;;;20.10;89.60;;;;;;5053373;28;20029;-75
2022/07/14 07:19:03;;;;;;;5.10;1.80;;;20.10;89.50;;;;;;5053387;28;20025;-75
2022/07/14 07:21:29;;;;;;;4.47;2.05;;;20.10;89.30;;;;;;5053210;28;20025;-75
2022/07/14 07:23:55;;;;;;;5.18;2.25;;;20.10;89.20;;;;;;5051528;28;20040;-75
2022/07/14 07:26:24;;;;;;;3.78;1.70;;;20.10;89.20;;;;;;5051913;28;20562;-75
2022/07/14 07:28:51;;;;;;;2.92;1.77;;;20.10;89.60;;;;;;5052967;28;20021;-75
2022/07/14 07:31:17;;;;;;;4.30;2.35;;;20.10;89.10;;;;;;5053075;28;20154;-76
2022/07/14 07:33:43;;;;;;;4.35;2.05;;;20.20;89.10;;;;;;5051531;28;20116;-73
2022/07/14 07:36:08;;;;;;;5.25;2.33;;;20.10;89.20;;;;;;5052748;28;20084;-75
2022/07/14 07:38:34;;;;;;;3.88;1.70;;;20.10;89.10;;;;;;5052828;28;20549;-76
2022/07/14 07:41:02;;;;;;;4.95;2.05;;;20.20;89.20;;;;;;5051583;28;20482;-76
2022/07/14 07:43:27;;;;;;;5.47;1.98;;;20.20;89.10;;;;;;5052573;28;20021;-75
2022/07/14 07:45:53;;;;;;;3.90;1.70;;;20.20;89.10;;;;;;5051276;28;20112;-75
2022/07/14 07:48:19;;;;;;;3.03;1.60;;;20.20;89.20;;;;;;5052704;28;20098;-76
2022/07/14 07:50:46;;;;;;;4.43;1.80;;;20.20;89.10;;;;;;5052386;28;20032;-75
2022/07/14 07:53:12;;;;;;;4.05;2.00;;;20.20;89.10;;;;;;5051431;28;20082;-75
2022/07/14 07:55:38;;;;;;;4.63;2.03;;;20.20;89.10;;;;;;5050793;28;20110;-75
2022/07/14 07:58:04;;;;;;;3.00;1.80;;;20.20;89.10;;;;;;5052485;28;20021;-75
2022/07/14 08:00:30;;;;;;;4.07;1.75;;;20.20;89.10;;;;;;5051201;28;20532;-75
2022/07/14 08:02:57;;;;;;;4.03;1.85;;;20.20;89.20;;;;;;5051419;28;20031;-75
2022/07/14 08:05:25;;;;;;;4.15;1.90;;;20.20;89.20;;;;;;5051883;28;20081;-75
2022/07/14 08:07:51;;;;;;;4.45;1.92;;;20.30;89.10;;;;;;5052306;28;20032;-76
2022/07/14 08:10:17;;;;;;;4.00;2.05;;;20.40;88.90;;;;;;5052295;28;20036;-75
2022/07/14 08:12:43;;;;;;;5.45;2.20;;;20.40;88.60;;;;;;5051127;28;20025;-75
2022/07/14 08:15:08;;;;;;;4.50;2.17;;;20.40;88.40;;;;;;5051609;28;20029;-76
2022/07/14 08:17:35;;;;;;;3.67;1.85;;;20.40;88.30;;;;;;5050921;28;20175;-75
2022/07/14 08:20:01;;;;;;;2.90;1.65;;;20.40;88.30;;;;;;5052091;28;20032;-75
2022/07/14 08:22:28;;;;;;;4.95;2.00;;;20.40;88.30;;;;;;5050861;28;20048;-75
2022/07/14 08:24:55;;;;;;;4.18;2.10;;;20.40;88.40;;;;;;5051725;28;20035;-75
2022/07/14 08:27:22;;;;;;;4.20;2.00;;;20.40;88.50;;;;;;5051058;28;20025;-75
2022/07/14 08:29:47;;;;;;;4.78;1.88;;;20.50;88.50;;;;;;5051964;28;20025;-75
2022/07/14 08:32:13;;;;;;;5.80;2.10;;;20.40;89.00;;;;;;5050574;28;20040;-75
2022/07/14 08:34:38;;;;;;;3.70;1.70;;;20.40;88.40;;;;;;5049899;28;20028;-75
2022/07/14 08:37:05;;;;;;;4.97;2.15;;;20.50;88.50;;;;;;5051806;28;20563;-75
2022/07/14 08:39:31;;;;;;;3.83;1.80;;;20.50;88.50;;;;;;5050549;28;20126;-75
2022/07/14 08:41:59;;;;;;;3.33;1.83;;;20.50;88.50;;;;;;5051230;28;20027;-76
2022/07/14 08:44:26;;;;;;;5.25;2.30;;;20.40;88.60;;;;;;5051387;28;20025;-76
2022/07/14 08:46:53;;;;;;;3.05;1.80;;;20.40;88.50;;;;;;5050340;28;20021;-76
2022/07/14 08:49:19;;;;;;;3.63;1.83;;;20.40;88.50;;;;;;5051670;28;20017;-75
2022/07/14 08:51:45;;;;;;;3.72;2.00;;;20.50;88.60;;;;;;5051426;28;20028;-76
2022/07/14 08:54:10;;;;;;;4.50;2.13;;;20.50;88.60;;;;;;5051468;28;20413;-76
2022/07/14 08:56:37;;;;;;;4.55;2.15;;;20.50;88.50;;;;;;5050499;28;20025;-76
2022/07/14 08:59:03;;;;;;;4.35;2.10;;;20.50;88.50;;;;;;5050103;28;20065;-76
2022/07/14 09:01:29;;;;;;;3.30;1.80;;;20.60;88.30;;;;;;5051469;28;20398;-76
2022/07/14 09:03:54;;;;;;;5.50;2.28;;;20.60;88.10;;;;;;5051118;28;20025;-76
2022/07/14 09:06:42;;;;;;;4.47;2.20;;;20.70;88.00;;;;;;5050181;28;20115;-75
2022/07/14 09:09:07;;;;;;;3.53;1.67;;;20.70;87.70;;;;;;5051503;28;20064;-75
2022/07/14 09:11:33;;;;;;;3.75;1.77;;;20.70;87.60;;;;;;5051424;28;20064;-76
2022/07/14 09:14:09;;;;;;;3.65;1.92;;;20.70;87.60;;;;;;5050879;28;20029;-75
2022/07/14 09:16:35;;;;;;;3.80;2.08;;;20.70;87.70;;;;;;5050229;28;20029;-75
2022/07/14 09:19:08;;;;;;;3.47;1.90;;;20.70;87.70;;;;;;5050155;28;20140;-76
2022/07/14 09:21:37;;;;;;;3.13;1.77;;;20.70;87.70;;;;;;5050064;28;20082;-75
2022/07/14 09:24:07;;;;;;;4.97;2.33;;;20.70;87.70;;;;;;5050984;28;20063;-75
2022/07/14 09:26:43;;;;;;;3.95;2.08;;;20.70;87.90;;;;;;5051146;28;20036;-74
2022/07/14 09:29:15;;;;;;;3.33;1.92;;;20.70;87.90;;;;;;5050442;28;20040;-76
2022/07/14 09:31:41;;;;;;;3.67;1.85;;;20.70;87.90;;;;;;5049989;28;20029;-75
2022/07/14 09:34:06;;;;;;;3.35;1.80;;;20.70;87.90;;;;;;5050661;28;20497;-75
2022/07/14 09:36:36;;;;;;;4.10;1.85;;;20.70;87.90;;;;;;5050098;28;20103;-75
2022/07/14 09:39:12;;;;;;;3.53;1.90;;;20.70;87.90;;;;;;5051054;28;20032;-75
2022/07/14 09:41:54;;;;;;;2.60;1.70;;;20.70;87.80;;;;;;5051104;28;20100;-75
2022/07/14 09:44:21;;;;;;;3.17;1.83;;;20.80;87.80;;;;;;5049445;28;20036;-75
2022/07/14 09:46:54;;;;;;;3.78;2.05;;;20.80;87.90;;;;;;5049805;28;20493;-75
2022/07/14 09:49:22;;;;;;;3.92;1.90;;;20.80;87.60;;;;;;5049933;28;20029;-75
2022/07/14 09:52:03;;;;;;;3.38;1.77;;;20.80;87.60;;;;;;5049912;28;20021;-76
2022/07/14 09:54:41;;;;;;;3.40;1.83;;;20.80;87.60;;;;;;5054202;28;20520;-75
2022/07/14 09:57:13;;;;;;;3.75;1.80;;;20.90;87.40;;;;;;5054686;28;20036;-75
2022/07/14 09:59:47;;;;;;;3.08;1.67;;;20.90;87.40;;;;;;5053544;28;20025;-75
2022/07/14 10:02:17;;;;;;;3.90;1.80;;;20.90;87.20;;;;;;5053460;28;20163;-75
2022/07/14 10:04:44;;;;;;;3.03;1.70;;;20.90;87.20;;;;;;5053062;28;20555;-75
2022/07/14 10:07:14;;;;;;;3.63;1.60;;;20.90;87.20;;;;;;5054656;28;20034;-75
2022/07/14 10:09:47;;;;;;;3.63;1.80;;;20.90;87.30;;;;;;5053199;28;20615;-75
2022/07/14 10:12:12;;;;;;;3.25;1.70;;;20.90;87.40;;;;;;5053251;28;20120;-75
2022/07/14 10:14:39;;;;;;;3.10;1.63;;;20.90;87.40;;;;;;5052828;28;20112;-75
2022/07/14 10:17:05;;;;;;;2.78;1.50;;;20.90;87.40;;;;;;5054256;28;20044;-76
2022/07/14 10:19:31;;;;;;;3.45;1.80;;;20.90;88.00;;;;;;5054316;28;20044;-75
2022/07/14 10:21:58;;;;;;;2.90;1.67;;;20.90;87.60;;;;;;5053041;28;20122;-75
2022/07/14 10:24:25;;;;;;;2.80;1.50;;;20.90;87.60;;;;;;5054033;28;20503;-76
2022/07/14 10:26:51;;;;;;;3.15;1.70;;;20.90;87.60;;;;;;5054430;28;20028;-75
2022/07/14 10:29:17;;;;;;;2.97;1.70;;;20.90;87.60;;;;;;5053001;28;20029;-75
2022/07/14 10:32:13;;;;;;;2.88;1.63;;;20.90;87.50;;;;;;5052764;28;20029;-75
2022/07/14 10:34:44;;;;;;;2.22;1.40;;;20.90;87.50;;;;;;5052341;28;20029;-75
2022/07/14 10:37:19;;;;;;;1.83;1.40;;;20.90;87.60;;;;;;5052843;28;20393;-75
2022/07/14 10:39:57;;;;;;;4.05;1.75;;;21.00;87.40;;;;;;5054142;28;20391;-75
2022/07/14 10:42:50;;;;;;;3.13;1.58;;;21.00;87.20;;;;;;5052818;28;20029;-75
2022/07/14 10:45:16;;;;;;;3.45;1.80;;;21.00;87.20;;;;;;5053756;28;20025;-75
2022/07/14 10:47:53;;;;;;;2.78;1.42;;;21.00;87.10;;;;;;5053812;28;20040;-75
2022/07/14 10:50:23;;;;;;;3.90;1.60;;;21.10;87.00;;;;;;5052599;28;20508;-75
2022/07/14 10:52:56;;;;;;;2.27;1.43;;;21.10;86.90;;;;;;5052320;28;20036;-76
2022/07/14 10:55:28;;;;;;;3.03;1.50;;;21.10;86.80;;;;;;5052329;28;20059;-76
2022/07/14 10:57:59;;;;;;;3.05;1.80;;;21.10;86.80;;;;;;5053759;28;20029;-76
2022/07/14 11:00:55;;;;;;;;;;;21.00;86.90;;;;;;5054124;28;20032;-76
2022/07/14 11:03:43;;;;;;;2.70;1.40;;;21.00;87.00;;;;;;5052914;28;19912;-74
2022/07/14 11:06:09;;;;;;;2.22;1.50;;;21.00;87.20;;;;;;5052243;28;20032;-76
2022/07/14 11:08:43;;;;;;;2.42;1.50;;;21.00;87.20;;;;;;5053643;28;20025;-75
2022/07/14 11:11:23;;;;;;;3.28;1.70;;;20.90;87.20;;;;;;5052224;28;20029;-76
2022/07/14 11:14:00;;;;;;;3.83;1.63;;;21.00;87.30;;;;;;5051687;28;20512;-75
2022/07/14 11:16:45;;;;;;;2.92;1.50;;;20.90;87.30;;;;;;5053266;28;20029;-75
2022/07/14 11:19:24;;;;;;;3.10;1.67;;;20.90;87.20;;;;;;5052113;28;20029;-75
2022/07/14 11:22:13;;;;;;;2.72;1.45;;;20.90;87.20;;;;;;5053111;28;20021;-75
2022/07/14 11:24:47;;;;;;;3.73;1.70;;;20.90;87.20;;;;;;5052921;28;20074;-75
2022/07/14 11:27:32;;;;;;;3.35;1.45;;;21.00;87.30;;;;;;5053153;28;20021;-76
2022/07/14 11:30:16;;;;;;;3.17;1.40;;;21.00;87.40;;;;;;5051791;28;20024;-75
2022/07/14 11:32:42;;;;;;;1.77;1.30;;;20.90;87.30;;;;;;5051740;28;20516;-75
2022/07/14 11:38:23;;;;;;;2.70;1.40;;;21.00;87.30;;;;;;5053240;28;20076;-75
2022/07/14 11:40:51;;;;;;;3.72;1.50;;;21.00;87.10;;;;;;5052810;28;20029;-75
2022/07/14 11:43:29;;;;;;;2.75;1.55;;;21.00;87.00;;;;;;5051426;28;20021;-76
2022/07/14 11:46:04;;;;;;;2.42;1.30;;;21.00;87.00;;;;;;5050902;28;20032;-75
2022/07/14 11:48:32;;;;;;;2.03;1.27;;;21.00;87.00;;;;;;5051514;28;20029;-76
2022/07/14 11:51:06;;;;;;;2.72;1.58;;;21.00;87.00;;;;;;5051610;28;20021;-76
2022/07/14 11:53:33;;;;;;;2.65;1.40;;;21.00;87.10;;;;;;5051009;28;20032;-75
2022/07/14 11:56:00;;;;;;;2.20;1.25;;;20.90;87.20;;;;;;5051248;28;20504;-75
2022/07/14 11:58:27;;;;;;;3.17;1.50;;;20.90;87.30;;;;;;5051162;28;20033;-76
2022/07/14 12:00:57;;;;;;;2.25;1.20;;;20.90;87.40;;;;;;5051205;28;20031;-76
2022/07/14 12:03:24;;;;;;;1.95;1.20;;;20.90;87.40;;;;;;5052148;28;20035;-73
2022/07/14 12:05:52;;;;;;;2.38;1.40;;;20.80;87.50;;;;;;5052427;28;20532;-76
2022/07/14 12:08:29;;;;;;;2.10;1.30;;;20.90;87.60;;;;;;5052155;28;20036;-76
2022/07/14 12:11:01;;;;;;;2.55;1.50;;;20.80;87.60;;;;;;5051258;28;20107;-75
2022/07/14 12:13:27;;;;;;;2.85;1.45;;;20.80;87.70;;;;;;5051867;28;20482;-75
2022/07/14 12:16:03;;;;;;;2.75;1.40;;;20.80;87.70;;;;;;5049973;28;20079;-76
2022/07/14 12:18:31;;;;;;;2.25;1.30;;;20.80;87.70;;;;;;5051968;28;20020;-76
2022/07/14 12:20:59;;;;;;;3.08;1.30;;;20.80;87.80;;;;;;5052289;28;20024;-77
2022/07/14 12:23:24;;;;;;;1.88;1.17;;;20.80;87.80;;;;;;5051879;28;20024;-75
2022/07/14 12:25:50;;;;;;;2.83;1.73;;;20.80;87.90;;;;;;5050989;28;20453;-76
2022/07/14 12:28:18;;;;;;;2.22;1.40;;;20.80;87.80;;;;;;5050639;28;20029;-75
2022/07/14 12:30:47;;;;;;;2.50;1.40;;;20.80;87.70;;;;;;5051873;28;20047;-76
2022/07/14 12:33:18;;;;;;;2.85;1.40;;;20.80;87.50;;;;;;5050636;28;20402;-75
2022/07/14 12:35:46;;;;;;;1.77;1.25;;;20.80;87.40;;;;;;5050286;28;20029;-76
2022/07/14 12:38:13;;;;;;;3.75;1.27;;;20.80;87.40;;;;;;5050591;28;20025;-75
2022/07/14 12:40:40;;;;;;;2.08;1.23;;;20.80;87.40;;;;;;5051614;28;20031;-75
2022/07/14 12:43:08;;;;;;;3.08;1.45;;;20.80;87.50;;;;;;5050425;28;20029;-75
2022/07/14 12:46:02;;;;;;;2.65;1.30;;;20.80;87.60;;;;;;5051336;28;20426;-75
2022/07/14 12:48:29;;;;;;;2.03;1.20;;;20.80;87.80;;;;;;5051749;28;20025;-75
2022/07/14 12:50:56;;;;;;;2.60;1.30;;;20.80;87.80;;;;;;5050380;28;20448;-75
2022/07/14 12:53:21;;;;;;;1.90;1.15;;;20.80;87.80;;;;;;5050157;28;20051;-75
2022/07/14 12:55:48;;;;;;;2.65;1.20;;;20.80;88.40;;;;;;5051509;28;20506;-75
2022/07/14 12:58:15;;;;;;;2.55;1.25;;;20.70;87.90;;;;;;5051538;28;20032;-76
2022/07/14 13:00:44;;;;;;;2.10;1.20;;;20.70;87.90;;;;;;5050388;28;20505;-75
2022/07/14 13:03:11;;;;;;;2.10;1.30;;;20.70;88.00;;;;;;5051407;28;20083;-75